createdAt,value
2019-01-21T00:01:02.516Z,23.33
2019-01-21T00:03:29.022Z,24.37
2019-01-21T00:05:55.236Z,23.73
2019-01-21T00:08:21.426Z,25.60
2019-01-21T00:10:47.611Z,25.30
2019-01-21T00:13:13.811Z,24.13
2019-01-21T00:15:40.036Z,25.10
2019-01-21T00:18:06.697Z,25.37
2019-01-21T00:20:33.232Z,24.90
2019-01-21T00:22:59.446Z,25.10
2019-01-21T00:25:25.635Z,26.10
2019-01-21T00:27:51.830Z,24.30
2019-01-21T00:30:33.403Z,24.17
2019-01-21T00:32:59.604Z,25.70
2019-01-21T00:35:25.802Z,26.70
2019-01-21T00:37:52.295Z,25.00
2019-01-21T00:40:18.493Z,25.53
2019-01-21T00:42:44.696Z,25.40
2019-01-21T00:45:11.182Z,23.30
2019-01-21T00:47:37.391Z,24.83
2019-01-21T00:50:10.779Z,25.10
2019-01-21T00:52:36.985Z,24.43
2019-01-21T00:55:07.187Z,26.17
2019-01-21T00:57:33.393Z,24.27
2019-01-21T00:59:59.585Z,24.17
2019-01-21T01:02:25.774Z,24.07
2019-01-21T01:04:51.970Z,24.67
2019-01-21T01:07:18.163Z,23.50
2019-01-21T01:09:44.368Z,23.63
2019-01-21T01:12:10.554Z,23.80
2019-01-21T01:14:36.765Z,24.13
2019-01-21T01:17:02.969Z,23.63
2019-01-21T01:19:29.163Z,21.53
2019-01-21T01:21:55.356Z,24.10
2019-01-21T01:24:21.561Z,24.00
2019-01-21T01:26:47.758Z,23.90
2019-01-21T01:29:13.966Z,25.00
2019-01-21T01:31:40.157Z,23.00
2019-01-21T01:34:06.359Z,22.93
2019-01-21T01:36:32.553Z,21.33
2019-01-21T01:38:58.752Z,22.83
2019-01-21T01:41:24.942Z,22.93
2019-01-21T01:43:51.163Z,22.53
2019-01-21T01:46:17.365Z,20.60
2019-01-21T01:48:43.574Z,21.17
2019-01-21T01:51:10.066Z,19.97
2019-01-21T01:53:36.289Z,19.47
2019-01-21T01:56:02.586Z,20.07
2019-01-21T01:58:28.801Z,20.30
2019-01-21T02:00:55.006Z,19.83
2019-01-21T02:03:21.222Z,19.90
2019-01-21T02:05:47.419Z,20.03
2019-01-21T02:08:13.919Z,21.03
2019-01-21T02:10:40.119Z,18.87
2019-01-21T02:13:06.330Z,21.80
2019-01-21T02:15:32.526Z,20.93
2019-01-21T02:17:58.827Z,20.10
2019-01-21T02:20:25.027Z,20.70
2019-01-21T02:22:53.826Z,21.10
2019-01-21T02:25:28.109Z,21.20
2019-01-21T02:28:16.351Z,20.57
2019-01-21T02:31:11.980Z,21.53
2019-01-21T02:34:01.237Z,21.13
2019-01-21T02:37:04.880Z,20.40
2019-01-21T02:39:39.797Z,19.40
2019-01-21T02:42:14.724Z,20.00
2019-01-21T02:45:16.143Z,19.93
2019-01-21T02:47:50.902Z,19.57
2019-01-21T02:50:25.518Z,21.03
2019-01-21T02:53:12.042Z,19.50
2019-01-21T02:55:55.838Z,19.50
2019-01-21T02:58:42.912Z,19.43
2019-01-21T03:01:55.205Z,19.67
2019-01-21T03:04:49.695Z,20.37
2019-01-21T03:07:48.179Z,18.90
2019-01-21T03:10:35.363Z,20.10
2019-01-21T03:13:27.690Z,19.40
2019-01-21T03:16:14.643Z,20.83
2019-01-21T03:18:58.734Z,20.33
2019-01-21T03:21:42.415Z,21.30
2019-01-21T03:24:48.551Z,21.73
2019-01-21T03:27:40.210Z,22.90
2019-01-21T03:30:37.793Z,23.07
2019-01-21T03:33:42.440Z,23.33
2019-01-21T03:36:33.737Z,24.23
2019-01-21T03:39:48.871Z,25.23
2019-01-21T03:42:26.327Z,23.90
2019-01-21T03:45:27.051Z,25.13
2019-01-21T03:48:16.554Z,25.50
2019-01-21T03:51:06.132Z,28.13
2019-01-21T03:53:53.256Z,27.13
2019-01-21T03:56:25.159Z,27.13
2019-01-21T03:59:20.468Z,27.23
2019-01-21T04:02:18.884Z,27.30
2019-01-21T04:04:56.107Z,28.77
2019-01-21T04:07:28.001Z,27.80
2019-01-21T04:10:18.398Z,28.60
2019-01-21T04:13:14.480Z,29.23
2019-01-21T04:15:55.039Z,27.47
2019-01-21T04:18:32.435Z,29.47
2019-01-21T04:21:04.353Z,28.13
2019-01-21T04:24:02.927Z,27.23
2019-01-21T04:26:55.323Z,28.17
2019-01-21T04:29:52.458Z,27.63
2019-01-21T04:32:33.125Z,27.80
2019-01-21T04:35:22.966Z,27.50
2019-01-21T04:38:14.419Z,28.43
2019-01-21T04:41:03.974Z,26.80
2019-01-21T04:43:35.883Z,26.10
2019-01-21T04:46:37.010Z,26.70
2019-01-21T04:49:48.148Z,24.23
2019-01-21T04:52:49.745Z,24.67
2019-01-21T04:55:27.531Z,26.53
2019-01-21T04:58:19.950Z,28.03
2019-01-21T05:01:00.662Z,25.87
2019-01-21T05:03:50.711Z,26.23
2019-01-21T05:06:31.091Z,28.03
2019-01-21T05:09:08.236Z,27.07
2019-01-21T05:11:46.216Z,26.00
2019-01-21T05:14:56.891Z,25.03
2019-01-21T09:51:04.192Z,30.23
2019-01-21T09:53:30.837Z,32.80
2019-01-21T09:55:56.991Z,33.27
2019-01-21T09:58:24.518Z,32.97
2019-01-21T10:00:50.724Z,35.10
2019-01-21T10:03:18.326Z,34.53
2019-01-21T10:05:49.331Z,36.80
2019-01-21T10:08:30.555Z,35.80
2019-01-21T10:11:18.856Z,35.40
2019-01-21T10:14:14.716Z,33.80
2019-01-21T10:17:16.325Z,36.33
2019-01-21T10:19:52.244Z,36.10
2019-01-21T10:22:38.751Z,34.73
2019-01-21T10:25:22.794Z,35.33
2019-01-21T10:28:01.040Z,35.90
2019-01-21T10:30:44.882Z,36.87
2019-01-21T10:33:43.994Z,36.17
2019-01-21T10:36:58.600Z,35.97
2019-01-21T10:40:08.276Z,36.30
2019-01-21T10:43:01.184Z,35.93
2019-01-21T10:45:38.893Z,37.73
2019-01-21T10:48:28.975Z,37.47
2019-01-21T10:51:26.306Z,39.07
2019-01-21T10:54:03.786Z,38.20
2019-01-21T10:56:41.286Z,39.67
2019-01-21T10:59:46.834Z,39.83
2019-01-21T11:02:39.467Z,39.50
2019-01-21T11:05:16.749Z,41.43
2019-01-21T11:08:06.082Z,38.60
2019-01-21T11:10:41.265Z,40.70
2019-01-21T11:13:21.809Z,40.07
2019-01-21T11:15:56.374Z,43.13
2019-01-21T11:18:49.053Z,41.40
2019-01-21T11:21:23.960Z,44.50
2019-01-21T11:24:27.691Z,43.27
2019-01-21T11:27:20.110Z,42.30
2019-01-21T11:30:15.151Z,42.17
2019-01-21T11:33:16.713Z,38.97
2019-01-21T11:36:34.560Z,39.50
2019-01-21T11:39:21.102Z,39.23
2019-01-21T11:42:13.646Z,38.17
2019-01-21T11:44:53.744Z,39.63
2019-01-21T11:47:30.730Z,38.37
2019-01-21T11:50:24.679Z,35.67
2019-01-21T11:52:59.599Z,35.60
2019-01-21T11:55:54.747Z,35.57
2019-01-21T11:58:35.234Z,36.93
2019-01-21T12:01:24.725Z,32.80
2019-01-21T12:04:17.772Z,32.97
2019-01-21T12:07:17.592Z,32.40
2019-01-21T12:10:07.762Z,31.40
2019-01-21T12:12:47.828Z,34.00
2019-01-21T12:15:36.599Z,33.37
2019-01-21T12:18:20.292Z,34.63
2019-01-21T12:21:00.794Z,35.73
2019-01-21T12:23:44.561Z,38.00
2019-01-21T12:26:39.185Z,36.33
2019-01-21T12:29:17.392Z,37.33
2019-01-21T12:32:18.954Z,36.10
2019-01-21T12:35:26.453Z,36.13
2019-01-21T12:38:13.146Z,31.07
2019-01-21T12:40:47.899Z,31.60
2019-01-21T12:43:29.143Z,32.33
2019-01-21T12:46:15.935Z,30.13
2019-01-21T12:48:47.823Z,30.70
2019-01-21T12:51:40.288Z,31.80
2019-01-21T12:54:35.184Z,31.50
2019-01-21T12:57:09.852Z,31.63
2019-01-21T12:59:44.799Z,32.53
2019-01-21T13:02:28.240Z,30.07
2019-01-21T13:05:05.785Z,31.50
2019-01-21T13:07:43.314Z,31.37
2019-01-21T13:10:47.644Z,31.83
2019-01-21T13:13:31.289Z,30.90
2019-01-21T13:16:20.792Z,32.33
2019-01-21T13:19:24.463Z,29.93
2019-01-21T13:22:29.616Z,29.53
2019-01-21T13:25:19.571Z,29.27
2019-01-21T13:28:15.898Z,30.70
2019-01-21T13:31:05.782Z,30.60
2019-01-21T13:33:56.125Z,32.90
2019-01-21T13:37:02.964Z,33.17
2019-01-21T13:40:00.014Z,33.33
2019-01-21T13:42:32.801Z,33.73
2019-01-21T13:45:33.083Z,32.67
2019-01-21T13:48:16.801Z,33.37
2019-01-21T13:50:54.820Z,31.93
2019-01-21T13:54:08.167Z,30.63
2019-01-21T13:56:46.213Z,31.30
2019-01-21T13:59:35.319Z,31.23
2019-01-21T14:02:12.975Z,31.43
2019-01-21T14:04:50.610Z,32.67
2019-01-21T14:07:28.533Z,30.80
2019-01-21T14:10:46.832Z,31.73
2019-01-21T14:13:27.570Z,29.73
2019-01-21T14:16:20.080Z,30.20
2019-01-21T14:19:00.366Z,29.43
2019-01-21T14:21:32.260Z,30.40
2019-01-21T14:24:16.323Z,28.73
2019-01-21T14:26:48.216Z,29.20
2019-01-21T14:29:28.210Z,27.97
2019-01-21T14:32:12.217Z,27.53
2019-01-21T14:34:58.961Z,27.77
2019-01-21T14:37:42.741Z,28.93
2019-01-21T14:40:38.372Z,29.30
2019-01-21T14:43:15.553Z,28.67
2019-01-21T14:45:52.966Z,31.13
2019-01-21T14:48:30.413Z,27.23
2019-01-21T14:51:04.918Z,28.07
2019-01-21T14:53:56.491Z,27.97
2019-01-21T14:57:05.642Z,29.10
2019-01-21T15:00:12.360Z,28.60
2019-01-21T15:02:56.347Z,28.60
2019-01-21T15:05:54.651Z,28.33
2019-01-21T15:08:32.096Z,27.70
2019-01-21T15:11:18.331Z,26.80
2019-01-21T15:14:20.541Z,27.50
2019-01-21T15:17:07.128Z,27.90
2019-01-21T15:19:36.863Z,33.20
2019-01-21T15:22:17.937Z,33.80
2019-01-21T15:25:06.874Z,33.90
2019-01-21T15:27:50.655Z,33.77
2019-01-21T15:30:33.612Z,33.27
2019-01-21T15:33:08.639Z,35.50
2019-01-21T15:36:06.508Z,33.33
2019-01-21T15:38:46.977Z,35.80
2019-01-21T15:41:39.605Z,36.90
2019-01-21T15:44:19.591Z,35.77
2019-01-21T15:47:03.095Z,31.53
2019-01-21T15:49:49.698Z,31.17
2019-01-21T15:52:37.101Z,35.20
2019-01-21T15:55:28.159Z,34.97
2019-01-21T15:58:02.550Z,33.73
2019-01-21T16:00:42.911Z,34.03
2019-01-21T16:03:17.542Z,32.90
2019-01-21T16:06:03.560Z,34.60
2019-01-21T16:08:38.287Z,36.67
2019-01-21T16:11:27.342Z,35.63
2019-01-21T16:13:53.732Z,35.30
2019-01-21T16:16:34.160Z,43.43
2019-01-21T16:19:05.852Z,44.77
2019-01-21T16:22:03.673Z,41.83
2019-01-21T16:24:50.455Z,39.07
2019-01-21T16:27:46.055Z,35.67
2019-01-21T16:30:26.778Z,34.67
2019-01-21T16:32:58.678Z,34.43
2019-01-21T16:35:30.587Z,34.33
2019-01-21T16:38:05.315Z,36.20
2019-01-21T16:40:59.842Z,35.60
2019-01-21T16:43:26.049Z,34.63
2019-01-21T16:45:52.250Z,35.07
2019-01-21T16:48:18.451Z,35.63
2019-01-21T16:50:44.642Z,35.40
2019-01-21T16:53:10.852Z,36.97
2019-01-21T16:55:37.050Z,37.63
2019-01-21T16:58:03.440Z,37.53
2019-01-21T17:00:29.656Z,35.87
2019-01-21T17:02:55.847Z,32.60
2019-01-21T17:05:22.058Z,33.03
2019-01-21T17:07:48.254Z,33.60
2019-01-21T17:10:14.453Z,34.83
2019-01-21T17:12:40.639Z,33.47
2019-01-21T17:15:11.977Z,31.93
2019-01-21T17:17:38.171Z,33.17
2019-01-21T17:20:15.563Z,33.27
2019-01-21T17:22:41.750Z,30.70
2019-01-21T17:25:08.649Z,30.50
2019-01-21T17:27:34.853Z,29.83
2019-01-21T17:30:01.040Z,32.97
2019-01-21T17:32:27.244Z,32.60
2019-01-21T17:34:53.442Z,31.07
2019-01-21T17:37:19.637Z,29.07
2019-01-21T17:39:45.827Z,30.57
2019-01-21T17:42:12.038Z,30.20
2019-01-21T17:44:38.223Z,29.90
2019-01-21T17:47:04.439Z,31.30
2019-01-21T17:49:52.889Z,34.40
2019-01-21T17:52:19.090Z,30.40
2019-01-21T17:54:45.282Z,31.23
2019-01-21T17:57:12.106Z,30.20
2019-01-21T18:00:13.325Z,29.83
2019-01-21T18:02:39.535Z,28.43
2019-01-21T18:05:06.137Z,31.07
2019-01-21T18:07:32.339Z,31.10
2019-01-21T18:09:58.523Z,31.60
2019-01-21T18:12:24.729Z,32.00
2019-01-21T18:14:53.010Z,33.80
2019-01-21T18:17:19.224Z,35.30
2019-01-21T18:19:45.416Z,35.30
2019-01-21T18:22:11.621Z,36.97
2019-01-21T18:24:38.369Z,39.53
2019-01-21T18:27:04.575Z,39.93
2019-01-21T18:29:30.772Z,38.33
2019-01-21T18:31:56.973Z,39.20
2019-01-21T18:34:26.262Z,38.40
2019-01-21T18:36:52.464Z,37.00
2019-01-21T18:39:18.663Z,37.23
2019-01-21T18:41:44.863Z,38.33
2019-01-21T18:44:11.697Z,37.27
2019-01-21T18:46:37.903Z,37.40
2019-01-21T18:49:22.649Z,38.80
2019-01-21T18:51:46.777Z,35.90
2019-01-21T18:54:12.652Z,38.53
2019-01-21T18:56:38.857Z,39.00
2019-01-21T18:59:05.048Z,36.20
2019-01-21T19:01:31.254Z,33.63
2019-01-21T19:04:06.922Z,36.17
2019-01-21T19:06:33.127Z,37.17
2019-01-21T19:08:59.588Z,36.17
2019-01-21T19:11:25.794Z,36.57
2019-01-21T19:13:51.982Z,37.20
2019-01-21T19:16:18.190Z,37.20
2019-01-21T19:18:44.708Z,37.63
2019-01-21T19:21:10.903Z,36.83
2019-01-21T19:23:37.096Z,37.10
2019-01-21T19:26:03.592Z,37.30
2019-01-21T19:28:30.852Z,35.87
2019-01-21T19:30:57.034Z,35.67
2019-01-21T19:33:23.240Z,33.50
2019-01-21T19:35:49.733Z,33.17
2019-01-21T19:38:15.937Z,34.70
2019-01-21T19:40:42.126Z,33.90
2019-01-21T19:43:08.331Z,34.37
2019-01-21T19:45:34.524Z,33.53
2019-01-21T19:48:00.726Z,35.07
2019-01-21T19:50:26.917Z,37.87
2019-01-21T19:52:53.436Z,50.10
2019-01-21T19:55:40.379Z,48.27
2019-01-21T19:58:20.019Z,44.27
2019-01-21T20:00:46.198Z,43.47
2019-01-21T20:03:12.405Z,44.07
2019-01-21T20:05:47.676Z,39.33
2019-01-21T20:08:13.871Z,37.93
2019-01-21T20:10:40.072Z,37.37
2019-01-21T20:13:06.265Z,34.43
2019-01-21T20:15:32.464Z,33.03
2019-01-21T20:18:08.767Z,32.60
2019-01-21T20:20:38.257Z,32.60
2019-01-21T20:23:04.864Z,32.60
2019-01-21T20:25:31.373Z,33.27
2019-01-21T20:27:57.563Z,33.53
2019-01-21T20:30:24.254Z,34.17
2019-01-21T20:32:50.561Z,33.03
2019-01-21T20:35:17.164Z,33.63
2019-01-21T20:37:43.373Z,33.30
2019-01-21T20:40:25.638Z,33.53
2019-01-21T20:42:51.951Z,33.17
2019-01-21T20:45:18.144Z,33.50
2019-01-21T20:47:44.334Z,32.93
2019-01-21T20:50:18.532Z,34.07
2019-01-21T20:52:44.732Z,33.17
2019-01-21T20:55:12.233Z,33.80
2019-01-21T20:57:38.437Z,35.17
2019-01-21T21:00:17.754Z,35.90
2019-01-21T21:02:43.957Z,39.27
2019-01-21T21:05:10.353Z,38.80
2019-01-21T21:07:36.555Z,38.73
2019-01-21T21:10:09.301Z,37.77
2019-01-21T21:12:35.502Z,33.47
2019-01-21T21:15:05.607Z,34.37
2019-01-21T21:17:31.809Z,31.57
2019-01-21T21:19:58.006Z,30.93
2019-01-21T21:22:24.207Z,30.67
2019-01-21T21:24:50.407Z,33.20
2019-01-21T21:27:16.610Z,32.03
2019-01-21T21:29:42.798Z,32.37
2019-01-21T21:32:09.005Z,34.07
2019-01-21T21:34:35.194Z,36.23
2019-01-21T21:37:01.378Z,34.97
2019-01-21T21:39:27.582Z,34.23
2019-01-21T21:41:53.970Z,37.97
2019-01-21T21:44:21.268Z,36.73
2019-01-21T21:46:47.670Z,36.13
2019-01-21T21:49:13.868Z,40.33
2019-01-21T21:51:40.063Z,42.27
2019-01-21T21:54:06.270Z,39.33
2019-01-21T21:56:32.459Z,38.60
2019-01-21T21:58:58.661Z,40.90
2019-01-21T22:01:25.269Z,39.00
2019-01-21T22:03:51.487Z,37.73
2019-01-21T22:06:34.081Z,38.67
2019-01-21T22:09:37.680Z,37.30
2019-01-21T22:12:03.872Z,33.47
2019-01-21T22:14:30.077Z,35.10
2019-01-21T22:16:56.274Z,35.43
2019-01-21T22:19:22.483Z,35.20
2019-01-21T22:21:49.077Z,34.63
2019-01-21T22:24:15.275Z,31.57
2019-01-21T22:26:41.479Z,31.23
2019-01-21T22:29:07.678Z,25.40
2019-01-21T22:31:33.873Z,26.47
2019-01-21T22:34:00.079Z,25.43
2019-01-21T22:36:26.619Z,25.83
2019-01-21T22:38:53.214Z,26.40
2019-01-21T22:41:19.407Z,25.73
2019-01-21T22:43:45.613Z,27.27
2019-01-21T22:46:11.807Z,26.23
2019-01-21T22:48:38.010Z,26.73
2019-01-21T22:51:08.279Z,26.80
2019-01-21T22:53:34.983Z,26.13
2019-01-21T22:56:01.173Z,25.77
2019-01-21T22:58:27.380Z,23.63
2019-01-21T23:00:59.417Z,24.73
2019-01-21T23:03:25.730Z,25.23
2019-01-21T23:05:51.918Z,24.37
2019-01-21T23:08:18.528Z,24.17
2019-01-21T23:10:44.982Z,22.47
2019-01-21T23:13:11.187Z,21.93
2019-01-21T23:15:52.798Z,22.07
2019-01-21T23:18:19.007Z,22.33
2019-01-21T23:21:05.611Z,23.33
2019-01-21T23:23:31.811Z,21.30
2019-01-21T23:25:58.299Z,22.60
2019-01-21T23:28:24.517Z,23.43
2019-01-21T23:30:50.711Z,23.87
2019-01-21T23:33:17.311Z,23.70
2019-01-21T23:35:43.512Z,22.57
2019-01-21T23:38:09.722Z,23.17
2019-01-21T23:40:36.268Z,23.97
2019-01-21T23:43:02.660Z,21.70
2019-01-21T23:45:28.953Z,23.70
2019-01-21T23:47:55.468Z,22.67
2019-01-21T23:50:21.968Z,22.80
2019-01-21T23:52:48.156Z,23.93
2019-01-21T23:55:14.373Z,24.80
2019-01-21T23:57:40.862Z,22.73
